Time;durP1;ratioP1;P1;durP2;ratioP2;P2;SDS_P1;SDS_P2;PMS_P1;PMS_P2;Temp;Humidity;BMP_temperature;BMP_pressure;BME280_temperature;BME280_humidity;BME280_pressure;Samples;Min_cycle;Max_cycle;Signal;HPM_P1;HPM_P2
2022/01/24 00:01:19;;;;;;;306.65;218.85;;;;;;;23.86;34.46;102636.25;5127240;27;20034;-41
2022/01/24 00:03:47;;;;;;;300.27;208.93;;;;;;;23.87;34.42;102642.34;5127058;27;20047;-41
2022/01/24 00:06:16;;;;;;;314.80;215.43;;;;;;;23.83;34.56;102643.97;5127371;27;20391;-41
2022/01/24 00:08:43;;;;;;;300.77;210.07;;;;;;;23.78;34.64;102635.03;5127296;27;20039;-41
2022/01/24 00:11:16;;;;;;;305.77;217.30;;;;;;;23.79;34.35;102629.84;5127636;27;20034;-41
2022/01/24 00:16:22;;;;;;;315.92;215.82;;;;;;;23.77;34.51;102628.00;5127548;27;20023;-41
2022/01/24 00:26:58;;;;;;;314.17;224.25;;;;;;;23.77;34.32;102633.22;5118306;27;20039;-41
2022/01/24 00:29:28;;;;;;;307.02;217.95;;;;;;;23.74;34.85;102647.13;5108110;27;20046;-40
2022/01/24 00:31:57;;;;;;;313.60;225.00;;;;;;;23.76;34.68;102648.06;5126948;27;20443;-41
2022/01/24 00:34:25;;;;;;;304.63;222.00;;;;;;;23.77;34.52;102652.47;5108788;27;20414;-41
2022/01/24 00:36:55;;;;;;;319.10;222.75;;;;;;;23.76;34.73;102648.06;5126925;27;20351;-40
2022/01/24 00:39:24;;;;;;;317.73;222.35;;;;;;;23.75;34.84;102648.00;5108414;27;20054;-41
2022/01/24 00:47:21;;;;;;;322.27;226.18;;;;;;;23.71;34.80;102649.59;5123229;27;20107;-41
2022/01/24 00:55:09;;;;;;;314.45;223.68;;;;;;;23.68;34.63;102649.47;5123410;27;20066;-41
2022/01/24 00:57:37;;;;;;;315.65;224.88;;;;;;;23.71;34.69;102646.97;5126462;27;20039;-42
2022/01/24 01:00:06;;;;;;;328.95;231.43;;;;;;;23.65;34.90;102652.88;5126177;27;20027;-41
2022/01/24 01:02:35;;;;;;;318.50;225.65;;;;;;;23.63;34.59;102651.91;5126474;27;20015;-41
2022/01/24 01:05:14;;;;;;;324.50;231.38;;;;;;;23.66;35.08;102649.41;5126266;27;20027;-41
2022/01/24 01:18:44;;;;;;;334.42;236.40;;;;;;;23.62;35.02;102641.38;5121804;27;20074;-41
2022/01/24 01:21:15;;;;;;;309.70;224.48;;;;;;;23.60;34.81;102641.28;5090761;27;20119;-41
2022/01/24 01:23:52;;;;;;;327.63;231.10;;;;;;;23.56;35.03;102643.72;5125912;27;20028;-41
2022/01/24 01:26:28;;;;;;;331.92;228.10;;;;;;;23.58;34.73;102639.47;5108376;27;20476;-41
2022/01/24 01:29:02;;;;;;;318.77;226.65;;;;;;;23.58;34.90;102639.47;5125691;27;20041;-42
2022/01/24 01:34:18;;;;;;;326.58;228.15;;;;;;;23.53;34.91;102634.03;5126198;27;20056;-41
2022/01/24 01:53:55;;;;;;;327.45;228.85;;;;;;;23.51;34.93;102625.22;5116615;27;20100;-41
2022/01/24 01:56:01;;;;;;;307.90;217.88;;;;;;;23.51;34.79;102628.72;5125093;27;20026;-41
2022/01/24 01:58:29;;;;;;;322.85;232.45;;;;;;;23.51;35.21;102623.47;5125065;27;20112;-41
2022/01/24 02:01:00;;;;;;;306.02;219.98;;;;;;;23.48;34.94;102633.84;5125297;27;20286;-41
2022/01/24 02:03:31;;;;;;;330.00;235.02;;;;;;;23.45;35.43;102632.81;5125172;27;20027;-41
2022/01/24 02:06:00;;;;;;;315.02;228.27;;;;;;;23.43;34.99;102632.75;5106693;27;20372;-41
2022/01/24 02:08:31;;;;;;;322.02;233.70;;;;;;;23.41;35.12;102644.88;5124816;27;20034;-41
2022/01/24 02:11:00;;;;;;;326.08;235.32;;;;;;;23.47;35.01;102645.16;5124991;27;20144;-40
2022/01/24 02:13:30;;;;;;;340.35;238.20;;;;;;;23.42;35.33;102651.00;5124564;27;20051;-41
2022/01/24 02:16:09;;;;;;;350.23;241.23;;;;;;;23.44;35.10;102650.25;5125396;27;20030;-41
2022/01/24 02:18:52;;;;;;;314.00;228.98;;;;;;;23.23;35.20;102624.06;5106972;27;20369;-41
2022/01/24 02:21:39;;;;;;;332.85;238.93;;;;;;;23.40;35.07;102650.06;5092796;27;20062;-41
2022/01/24 02:24:09;;;;;;;326.70;235.07;;;;;;;23.40;35.32;102652.69;5125083;27;20038;-41
2022/01/24 02:26:38;;;;;;;318.08;230.50;;;;;;;23.39;35.20;102653.53;5124910;27;20555;-41
2022/01/24 02:29:19;;;;;;;337.65;239.93;;;;;;;23.36;35.00;102647.31;5124759;27;20023;-41
2022/01/24 02:31:50;;;;;;;343.58;239.30;;;;;;;23.35;35.22;102649.84;5124397;27;20023;-41
2022/01/24 02:34:40;;;;;;;337.33;242.07;;;;;;;23.31;35.55;102647.97;5124266;27;20027;-41
2022/01/24 02:37:11;;;;;;;346.85;242.05;;;;;;;23.35;35.43;102642.00;5124721;27;20031;-41
2022/01/24 02:48:33;;;;;;;346.88;243.38;;;;;;;23.33;35.06;102641.94;5116623;27;20035;-41
2022/01/24 02:50:54;;;;;;;323.65;231.43;;;;;;;23.31;35.46;102633.13;5116339;27;20043;-41
2022/01/24 02:53:23;;;;;;;333.30;237.90;;;;;;;23.30;35.22;102633.97;5123133;27;20041;-41
2022/01/24 02:55:52;;;;;;;328.05;233.57;;;;;;;23.30;35.13;102638.31;5123551;27;20019;-42
2022/01/24 02:58:21;;;;;;;330.88;241.25;;;;;;;23.26;35.27;102634.66;5123873;27;20031;-41
2022/01/24 03:00:52;;;;;;;343.23;241.23;;;;;;;23.25;35.33;102635.47;5123641;27;20035;-41
2022/01/24 03:03:21;;;;;;;319.50;230.20;;;;;;;23.27;35.01;102628.59;5124217;27;20091;-41
2022/01/24 03:05:50;;;;;;;349.73;246.55;;;;;;;23.23;35.60;102626.69;5123636;27;20122;-41
2022/01/24 03:08:21;;;;;;;346.50;246.27;;;;;;;23.25;35.68;102626.75;5123717;27;20056;-41
2022/01/24 03:10:52;;;;;;;327.50;232.25;;;;;;;23.26;35.28;102623.28;5124068;28;20363;-41
2022/01/24 03:13:32;;;;;;;341.38;238.20;;;;;;;23.23;35.20;102624.06;5123834;27;20027;-41
2022/01/24 03:16:03;;;;;;;324.60;228.15;;;;;;;23.24;35.46;102611.84;5123919;27;20500;-41
2022/01/24 03:18:32;;;;;;;335.17;239.82;;;;;;;23.29;35.26;102619.06;5124164;28;20031;-41
2022/01/24 03:21:01;;;;;;;339.75;237.27;;;;;;;23.23;35.29;102607.44;5123832;28;20054;-40
2022/01/24 03:23:29;;;;;;;343.42;242.73;;;;;;;23.20;35.51;102603.88;5123361;28;20343;-40
2022/01/24 03:25:58;;;;;;;346.58;242.52;;;;;;;23.19;35.59;102602.03;5123898;28;20027;-41
2022/01/24 03:28:27;;;;;;;345.33;245.48;;;;;;;23.18;35.56;102602.00;5123801;27;20042;-41
2022/01/24 03:30:56;;;;;;;332.15;241.15;;;;;;;23.19;35.50;102602.03;5128522;27;20023;-41
2022/01/24 03:33:24;;;;;;;338.33;239.60;;;;;;;23.21;35.31;102612.63;5109995;27;20034;-42
2022/01/24 03:35:53;;;;;;;330.00;238.40;;;;;;;23.20;35.50;102606.50;5128259;27;20161;-41
2022/01/24 03:38:23;;;;;;;325.90;235.50;;;;;;;23.20;35.66;102603.88;5127429;27;20106;-41
2022/01/24 03:40:52;;;;;;;335.13;238.93;;;;;;;23.17;35.58;102601.09;5109422;27;20083;-41
2022/01/24 03:43:20;;;;;;;338.98;242.27;;;;;;;23.17;35.31;102608.94;5127667;27;20480;-41
2022/01/24 03:46:09;;;;;;;344.95;245.43;;;;;;;23.13;35.82;102609.66;5127678;27;20404;-40
2022/01/24 03:48:41;;;;;;;348.98;246.23;;;;;;;23.12;35.74;102613.09;5127569;27;20114;-41
2022/01/24 03:51:10;;;;;;;349.67;244.95;;;;;;;23.12;35.52;102605.25;5127531;27;20496;-41
2022/01/24 03:53:39;;;;;;;331.25;238.73;;;;;;;23.09;35.61;102612.06;5127497;27;20428;-41
2022/01/24 03:56:08;;;;;;;348.88;247.75;;;;;;;23.15;35.74;102613.25;5127768;27;20921;-40
2022/01/24 03:58:37;;;;;;;348.42;244.43;;;;;;;23.13;35.75;102614.91;5127885;27;20027;-40
2022/01/24 04:01:08;;;;;;;351.85;245.82;;;;;;;23.08;35.56;102616.41;5127846;27;20543;-41
2022/01/24 04:03:38;;;;;;;346.55;244.40;;;;;;;23.06;35.76;102616.34;5127454;27;20552;-41
2022/01/24 04:06:07;;;;;;;347.13;245.10;;;;;;;23.08;35.73;102612.91;5108944;27;20031;-41
2022/01/24 04:08:36;;;;;;;355.05;254.13;;;;;;;22.88;35.69;102585.03;5127720;27;20027;-41
2022/01/24 04:11:10;;;;;;;340.08;242.05;;;;;;;23.05;35.62;102619.81;5099222;27;20023;-41
2022/01/24 04:13:41;;;;;;;365.80;249.17;;;;;;;23.06;35.65;102613.75;5127109;27;20476;-41
2022/01/24 04:18:51;;;;;;;348.65;245.90;;;;;;;23.05;35.69;102614.56;5127262;27;20050;-41
2022/01/24 04:21:24;;;;;;;;;;;;;;;;;;;;;
2022/01/24 04:23:56;;;;;;;351.05;248.18;;;;;;;23.03;35.75;102610.06;5127045;27;20283;-41
2022/01/24 04:26:25;;;;;;;352.20;249.60;;;;;;;23.01;35.76;102611.72;5127152;27;20035;-41
2022/01/24 04:28:54;;;;;;;348.67;246.13;;;;;;;23.01;35.86;102611.72;5127043;27;20053;-41
2022/01/24 04:31:23;;;;;;;342.70;243.30;;;;;;;23.01;36.08;102617.88;5127588;27;20109;-41
2022/01/24 04:33:52;;;;;;;345.13;249.30;;;;;;;22.99;35.85;102613.41;5126791;27;20031;-41
2022/01/24 04:36:21;;;;;;;355.27;250.20;;;;;;;22.98;35.90;102615.13;5098572;27;20105;-41
2022/01/24 04:38:49;;;;;;;345.60;246.48;;;;;;;22.97;36.01;102615.06;5126216;27;20071;-41
2022/01/24 04:41:23;;;;;;;357.63;252.88;;;;;;;23.00;36.17;102617.81;5125842;27;20023;-41
2022/01/24 04:43:58;;;;;;;349.27;244.18;;;;;;;23.00;35.84;102609.97;5109174;27;20135;-42
2022/01/24 04:54:57;;;;;;;352.88;251.38;;;;;;;23.00;35.97;102604.72;5126598;27;20027;-42
2022/01/24 04:57:04;;;;;;;356.92;248.90;;;;;;;23.01;35.76;102603.88;5101428;27;20463;-41
2022/01/24 04:59:33;;;;;;;360.58;251.45;;;;;;;23.01;35.99;102614.34;5126382;27;20121;-41
2022/01/24 05:02:02;;;;;;;347.00;247.95;;;;;;;22.95;35.83;102606.25;5108369;27;20488;-41
2022/01/24 05:04:31;;;;;;;356.98;250.55;;;;;;;22.81;36.02;102577.75;5126302;27;20035;-40
2022/01/24 05:07:00;;;;;;;354.67;250.43;;;;;;;22.97;35.83;102600.25;5126921;27;20115;-42
2022/01/24 05:09:34;;;;;;;346.77;249.95;;;;;;;22.94;36.15;102599.22;5126200;27;20114;-41
2022/01/24 05:12:11;;;;;;;357.38;249.00;;;;;;;22.98;36.11;102602.03;5126129;27;20035;-40
2022/01/24 05:23:39;;;;;;;342.88;246.25;;;;;;;22.89;36.22;102602.53;5117500;27;20092;-41
2022/01/24 05:25:40;;;;;;;357.88;252.90;;;;;;;22.90;36.10;102598.19;5120917;27;20035;-41
2022/01/24 05:28:09;;;;;;;358.45;247.65;;;;;;;22.92;36.10;102602.66;5124942;27;20027;-41
2022/01/24 05:30:38;;;;;;;356.85;249.25;;;;;;;22.86;36.26;102605.00;5125841;27;20392;-43
2022/01/24 05:33:05;;;;;;;355.73;250.35;;;;;;;22.87;36.12;102601.56;5095339;27;20026;-41
2022/01/24 05:35:34;;;;;;;351.75;251.38;;;;;;;22.85;36.12;102597.09;5125907;27;20027;-41
2022/01/24 05:38:02;;;;;;;346.90;251.85;;;;;;;22.88;36.10;102608.59;5107628;27;20034;-41
2022/01/24 05:40:31;;;;;;;352.00;247.13;;;;;;;22.89;35.85;102606.88;5125499;27;20043;-41
2022/01/24 05:43:00;;;;;;;354.35;250.38;;;;;;;22.85;36.33;102608.44;5125825;27;20512;-41
2022/01/24 05:45:29;;;;;;;349.92;249.23;;;;;;;22.88;36.11;102611.19;5125248;27;20110;-41
2022/01/24 05:47:58;;;;;;;355.77;251.68;;;;;;;22.76;36.37;102598.47;5107389;27;20673;-41
2022/01/24 05:50:27;;;;;;;365.27;254.05;;;;;;;22.80;36.23;102615.22;5126025;27;20034;-41
2022/01/24 05:52:56;;;;;;;362.38;249.85;;;;;;;22.81;36.13;102621.34;5125607;27;20031;-40
2022/01/24 05:55:24;;;;;;;352.02;250.75;;;;;;;22.81;36.13;102623.94;5125325;27;20061;-41
2022/01/24 05:57:53;;;;;;;352.00;251.05;;;;;;;22.83;36.13;102623.22;5124804;27;20110;-41
2022/01/24 06:00:22;;;;;;;349.88;247.98;;;;;;;22.87;36.15;102621.63;5125162;27;20031;-41
2022/01/24 06:02:51;;;;;;;338.48;241.20;;;;;;;22.77;35.93;102613.34;5124855;27;20032;-43
2022/01/24 06:05:20;;;;;;;352.05;247.60;;;;;;;22.84;36.24;102630.19;5125095;27;20026;-42
2022/01/24 06:07:49;;;;;;;354.77;249.27;;;;;;;22.85;36.21;102629.38;5125353;27;20077;-41
2022/01/24 06:10:18;;;;;;;345.77;247.55;;;;;;;22.87;35.97;102639.94;5124950;27;20134;-41
2022/01/24 06:12:46;;;;;;;349.42;248.20;;;;;;;22.92;36.00;102638.38;5125689;27;20030;-41
2022/01/24 06:15:15;;;;;;;347.45;248.05;;;;;;;22.92;36.01;102638.38;5124725;27;20027;-41
2022/01/24 06:17:43;;;;;;;356.27;248.23;;;;;;;22.91;35.86;102641.88;5124782;27;20031;-41
2022/01/24 06:20:12;;;;;;;345.13;241.75;;;;;;;22.92;35.79;102639.31;5124349;27;20388;-41
2022/01/24 06:22:41;;;;;;;352.52;245.55;;;;;;;22.90;36.19;102646.19;5124787;27;20471;-41
2022/01/24 06:25:10;;;;;;;346.13;246.52;;;;;;;22.88;35.91;102642.59;5124300;27;20038;-42
2022/01/24 06:27:39;;;;;;;352.05;243.73;;;;;;;22.87;36.04;102634.69;5125084;27;20031;-41
2022/01/24 06:30:07;;;;;;;346.65;240.57;;;;;;;22.93;35.94;102642.81;5124969;27;20055;-41
2022/01/24 06:32:38;;;;;;;341.00;242.20;;;;;;;22.96;35.98;102649.91;5124740;27;20037;-42
2022/01/24 06:35:07;;;;;;;339.17;240.57;;;;;;;22.94;35.86;102641.09;5093478;27;20031;-42
2022/01/24 06:37:36;;;;;;;349.17;244.50;;;;;;;22.93;36.10;102640.19;5124300;27;20778;-41
2022/01/24 06:40:05;;;;;;;346.33;241.35;;;;;;;22.90;36.19;102645.31;5106085;27;20549;-41
2022/01/24 06:42:34;;;;;;;341.73;240.18;;;;;;;22.94;36.09;102646.31;5124880;27;20491;-41
2022/01/24 06:45:02;;;;;;;347.90;247.73;;;;;;;22.95;36.23;102642.88;5106130;27;20051;-41
2022/01/24 06:47:31;;;;;;;341.70;242.38;;;;;;;22.97;36.27;102642.13;5124246;27;20324;-43
2022/01/24 06:49:59;;;;;;;359.25;243.27;;;;;;;22.92;35.83;102643.63;5124919;27;20026;-41
2022/01/24 06:52:28;;;;;;;353.00;242.90;;;;;;;22.94;36.21;102636.75;5124246;27;20035;-42
2022/01/24 06:54:57;;;;;;;345.65;241.07;;;;;;;22.90;36.08;102638.34;5124284;27;20031;-42
2022/01/24 06:57:25;;;;;;;341.38;236.52;;;;;;;22.94;36.31;102643.72;5106219;27;20556;-41
2022/01/24 06:59:53;;;;;;;339.65;235.98;;;;;;;22.91;35.97;102626.16;5123971;27;20139;-42
2022/01/24 07:02:22;;;;;;;335.30;235.80;;;;;;;22.87;36.15;102632.97;5124328;27;20393;-43
2022/01/24 07:04:50;;;;;;;335.15;232.95;;;;;;;22.89;35.90;102639.16;5123852;27;20019;-41
2022/01/24 07:07:19;;;;;;;337.20;236.75;;;;;;;22.89;35.79;102644.41;5123785;27;20024;-41
2022/01/24 07:09:47;;;;;;;343.95;233.98;;;;;;;22.98;35.96;102648.25;5124253;27;20453;-41
2022/01/24 07:12:16;;;;;;;344.30;235.50;;;;;;;22.92;35.74;102643.63;5123995;27;20038;-41
2022/01/24 07:14:45;;;;;;;337.23;233.00;;;;;;;22.92;36.19;102643.63;5123964;27;20510;-41
2022/01/24 07:17:58;;;;;;;342.27;236.75;;;;;;;22.92;36.06;102643.63;5124314;27;20027;-41
2022/01/24 07:20:01;;;;;;;347.13;240.02;;;;;;;22.96;36.17;102644.69;5106201;28;20054;-41
2022/01/24 07:22:30;;;;;;;353.40;243.25;;;;;;;22.98;35.93;102649.13;5123985;28;20400;-41
2022/01/24 07:24:58;;;;;;;345.45;240.00;;;;;;;22.95;35.81;102643.75;5092922;28;20027;-42
2022/01/24 07:27:27;;;;;;;346.45;235.30;;;;;;;22.93;36.39;102642.81;5123833;28;20480;-41
2022/01/24 07:29:55;;;;;;;326.73;228.73;;;;;;;23.01;36.34;102640.53;5123681;28;20034;-41
2022/01/24 07:32:24;;;;;;;344.45;239.02;;;;;;;22.97;36.35;102636.00;5123882;28;20118;-41
2022/01/24 07:34:54;;;;;;;353.02;240.52;;;;;;;22.98;35.91;102643.03;5124144;28;20084;-41
2022/01/24 07:37:24;;;;;;;347.40;237.35;;;;;;;23.02;36.13;102644.94;5124056;28;20055;-41
2022/01/24 07:39:53;;;;;;;337.90;239.30;;;;;;;23.03;36.23;102652.88;5123076;28;20031;-41
2022/01/24 07:45:10;;;;;;;344.75;243.32;;;;;;;23.05;35.93;102650.31;5112636;28;20286;-41
2022/01/24 07:47:38;;;;;;;345.88;236.98;;;;;;;23.06;36.26;102650.38;5094523;28;20369;-41
2022/01/24 07:50:08;;;;;;;350.33;241.68;;;;;;;23.05;36.09;102652.91;5123677;28;20027;-41
2022/01/24 07:52:37;;;;;;;342.77;240.25;;;;;;;23.05;36.30;102650.31;5123040;28;20240;-42
2022/01/24 07:55:07;;;;;;;349.08;242.25;;;;;;;23.06;36.36;102658.25;5122945;28;20027;-41
2022/01/24 07:57:35;;;;;;;338.52;241.80;;;;;;;23.08;36.10;102650.44;5122487;28;20429;-41
2022/01/24 08:00:07;;;;;;;346.60;240.63;;;;;;;23.10;36.24;102654.03;5123510;28;20079;-41
2022/01/24 08:02:35;;;;;;;355.00;245.25;;;;;;;23.11;36.14;102654.91;5093323;28;20111;-42
2022/01/24 08:05:05;;;;;;;344.60;242.77;;;;;;;23.09;36.13;102652.22;5123222;28;20027;-41
2022/01/24 08:07:33;;;;;;;365.73;243.50;;;;;;;23.11;36.24;102657.53;5123714;28;20020;-42
2022/01/24 08:10:02;;;;;;;352.40;245.73;;;;;;;23.07;36.43;102651.25;5124077;28;20027;-42
2022/01/24 08:12:30;;;;;;;359.08;247.50;;;;;;;23.09;36.50;102660.09;5123392;28;21039;-41
2022/01/24 08:15:00;;;;;;;359.85;246.73;;;;;;;23.08;36.43;102668.75;5123186;27;20064;-42
2022/01/24 08:17:29;;;;;;;356.85;247.98;;;;;;;23.06;36.26;102673.94;5126001;27;20054;-42
2022/01/24 08:19:59;;;;;;;357.38;246.70;;;;;;;23.05;36.47;102666.91;5127120;27;20526;-44
2022/01/24 08:22:27;;;;;;;358.17;244.48;;;;;;;23.10;36.50;102685.44;5127275;27;20343;-42
2022/01/24 08:24:56;;;;;;;368.15;250.02;;;;;;;23.10;36.31;102685.44;5127093;27;20507;-41
2022/01/24 08:27:25;;;;;;;354.60;244.57;;;;;;;23.12;36.48;102691.63;5127017;27;20034;-41
2022/01/24 08:29:53;;;;;;;357.63;246.88;;;;;;;23.16;36.06;102701.44;5127026;27;20618;-41
2022/01/24 08:32:22;;;;;;;357.80;245.52;;;;;;;23.13;36.43;102697.75;5126978;27;20035;-41
2022/01/24 08:34:51;;;;;;;340.95;238.00;;;;;;;23.10;36.34;102703.75;5126920;27;20122;-42
2022/01/24 08:37:20;;;;;;;351.15;242.95;;;;;;;23.09;36.37;102707.22;5126725;27;20035;-42
2022/01/24 08:39:49;;;;;;;352.48;253.27;;;;;;;23.12;36.20;102701.19;5126380;27;20031;-42
2022/01/24 08:42:27;;;;;;;347.52;242.77;;;;;;;23.10;36.55;102703.75;5101911;27;20031;-42
2022/01/24 08:47:27;;;;;;;339.95;235.25;;;;;;;23.16;36.29;102703.13;5127100;27;20102;-46
2022/01/24 08:49:56;;;;;;;332.95;233.63;;;;;;;23.20;36.11;102695.50;5126512;27;20105;-41
2022/01/24 08:52:25;;;;;;;327.05;228.52;;;;;;;23.19;36.50;102704.16;5127079;27;20034;-41
2022/01/24 08:54:54;;;;;;;341.27;229.07;;;;;;;23.25;36.64;102702.69;5126732;27;20083;-42
2022/01/24 08:57:25;;;;;;;318.02;217.68;;;;;;;23.32;36.54;102695.16;5126634;27;20114;-41
2022/01/24 08:59:55;;;;;;;313.95;216.80;;;;;;;23.39;36.31;102703.28;5126648;27;20149;-42
2022/01/24 09:02:23;;;;;;;311.88;208.50;;;;;;;23.38;36.62;102710.22;5126564;27;20023;-42
2022/01/24 09:04:52;;;;;;;308.65;205.50;;;;;;;23.46;36.06;102706.22;5098287;27;20031;-41
2022/01/24 09:07:20;;;;;;;306.80;208.23;;;;;;;23.41;36.33;102694.66;5126467;27;20890;-42
2022/01/24 09:09:48;;;;;;;282.77;194.07;;;;;;;23.46;36.19;102707.94;5126355;27;20022;-43
2022/01/24 09:12:17;;;;;;;285.70;192.05;;;;;;;23.47;36.43;102709.72;5126229;27;20027;-42
2022/01/24 09:14:47;;;;;;;268.75;186.40;;;;;;;23.49;35.85;102708.97;5126752;27;20164;-42
2022/01/24 09:17:17;;;;;;;264.08;181.15;;;;;;;23.50;36.26;102715.97;5126336;27;20052;-43
2022/01/24 09:19:45;;;;;;;265.73;182.98;;;;;;;23.50;36.10;102721.22;5094757;27;20088;-42
2022/01/24 09:22:13;;;;;;;273.92;178.07;;;;;;;23.51;35.93;102715.16;5126544;27;20373;-42
2022/01/24 09:24:41;;;;;;;266.17;178.85;;;;;;;23.56;36.13;102724.94;5125907;27;20027;-43
2022/01/24 09:27:10;;;;;;;266.38;178.15;;;;;;;23.55;36.08;102713.59;5080766;27;20054;-39
2022/01/24 09:29:38;;;;;;;260.88;175.90;;;;;;;23.56;35.84;102722.31;5126068;27;20090;-39
2022/01/24 09:32:06;;;;;;;265.20;177.77;;;;;;;23.63;35.99;102729.63;5126209;27;20536;-42
2022/01/24 09:34:34;;;;;;;258.67;172.57;;;;;;;23.62;35.73;102728.72;5125743;27;20034;-42
2022/01/24 09:37:03;;;;;;;267.60;176.48;;;;;;;23.63;35.89;102734.88;5107464;27;20070;-42
2022/01/24 09:39:31;;;;;;;261.30;177.27;;;;;;;23.49;35.74;102713.31;5125794;27;20076;-42
2022/01/24 09:41:58;;;;;;;257.40;173.18;;;;;;;23.69;35.94;102739.47;5090074;27;20429;-42
2022/01/24 09:44:27;;;;;;;268.77;170.13;;;;;;;23.77;35.37;102744.19;5125793;27;20435;-42
2022/01/24 09:46:55;;;;;;;259.15;171.68;;;;;;;23.80;35.41;102732.94;5125839;27;20019;-43
2022/01/24 09:49:22;;;;;;;247.18;167.20;;;;;;;23.78;35.71;102739.84;5125591;27;20034;-43
2022/01/24 09:51:50;;;;;;;268.77;175.75;;;;;;;23.78;35.84;102731.97;5125483;27;20030;-42
2022/01/24 09:54:19;;;;;;;259.58;169.95;;;;;;;23.79;35.93;102734.69;5125448;27;20023;-42
2022/01/24 09:56:47;;;;;;;250.10;167.60;;;;;;;23.85;35.49;102738.38;5107228;27;20532;-42
2022/01/24 09:59:15;;;;;;;244.90;163.15;;;;;;;23.89;35.80;102738.59;5125202;27;20385;-42
2022/01/24 10:01:44;;;;;;;247.88;163.35;;;;;;;23.91;35.44;102736.00;5124937;27;20031;-42
2022/01/24 10:04:18;;;;;;;245.65;164.07;;;;;;;23.90;35.64;102734.22;5107238;27;20023;-42
2022/01/24 10:07:06;;;;;;;254.25;166.80;;;;;;;23.91;35.71;102728.16;5107001;27;20114;-42
2022/01/24 10:09:55;;;;;;;259.95;167.38;;;;;;;23.92;35.80;102735.19;5125476;27;20027;-43
2022/01/24 10:17:46;;;;;;;251.95;163.18;;;;;;;24.01;35.42;102734.69;5120591;27;20119;-41
2022/01/24 10:20:29;;;;;;;236.02;160.23;;;;;;;24.02;35.72;102734.75;5124470;27;20058;-41
2022/01/24 10:23:02;;;;;;;244.05;162.18;;;;;;;24.06;35.29;102736.69;5124699;27;20484;-41
2022/01/24 10:25:31;;;;;;;238.63;158.90;;;;;;;24.00;35.58;102735.53;5124363;27;20034;-42
2022/01/24 10:28:05;;;;;;;249.73;161.27;;;;;;;24.09;35.36;102735.91;5124488;27;20027;-41
2022/01/24 10:30:34;;;;;;;244.50;159.52;;;;;;;24.09;35.33;102744.66;5124503;27;20555;-42
2022/01/24 10:33:04;;;;;;;233.50;153.82;;;;;;;24.12;35.21;102736.94;5124502;27;20449;-40
2022/01/24 10:35:35;;;;;;;234.32;149.30;;;;;;;24.25;35.05;102737.41;5125226;27;20023;-41
2022/01/24 10:39:11;;;;;;;211.27;137.40;;;;;;;24.33;34.81;102735.97;5124346;27;20027;-43
2022/01/24 10:41:22;;;;;;;210.18;136.70;;;;;;;24.28;34.99;102740.16;5115223;27;20147;-42
2022/01/24 10:43:56;;;;;;;199.40;130.93;;;;;;;24.28;34.56;102748.03;5124292;27;20031;-41
2022/01/24 10:46:26;;;;;;;201.57;132.85;;;;;;;24.28;34.64;102750.66;5124750;27;20023;-43
2022/01/24 10:49:04;;;;;;;189.52;127.50;;;;;;;24.26;34.79;102747.06;5124522;27;20058;-42
2022/01/24 10:51:39;;;;;;;206.13;132.82;;;;;;;24.26;34.53;102744.47;5124185;27;20019;-44
2022/01/24 10:54:07;;;;;;;202.90;131.90;;;;;;;24.28;34.63;102743.66;5124145;27;20031;-42
2022/01/24 10:56:46;;;;;;;192.23;128.95;;;;;;;24.26;34.59;102749.69;5106558;27;20109;-46
2022/01/24 10:59:18;;;;;;;179.98;120.20;;;;;;;24.28;34.52;102748.03;5124252;27;20437;-41
2022/01/24 11:01:52;;;;;;;179.88;118.68;;;;;;;24.25;34.30;102740.91;5124683;27;20020;-41
2022/01/24 11:04:23;;;;;;;180.43;117.45;;;;;;;24.19;34.27;102731.91;5105948;27;20031;-41
2022/01/24 11:06:54;;;;;;;171.20;115.53;;;;;;;24.23;34.44;102736.47;5105854;28;20027;-42
2022/01/24 11:09:25;;;;;;;177.23;116.07;;;;;;;24.26;34.11;102744.47;5082351;28;20031;-42
2022/01/24 11:12:09;;;;;;;170.73;112.25;;;;;;;24.26;34.53;102750.59;5123894;27;20019;-42
2022/01/24 11:14:40;;;;;;;167.85;109.88;;;;;;;24.27;34.08;102746.25;5123841;27;20027;-42
2022/01/24 11:17:13;;;;;;;175.45;110.13;;;;;;;24.18;34.09;102717.94;5105746;27;20098;-41
2022/01/24 11:19:45;;;;;;;171.20;112.35;;;;;;;24.38;33.97;102752.81;5123720;27;20027;-41
2022/01/24 11:22:20;;;;;;;162.05;106.30;;;;;;;24.41;34.38;102745.06;5106603;28;20106;-42
2022/01/24 11:24:57;;;;;;;170.25;111.68;;;;;;;24.54;33.84;102742.91;5123367;28;20031;-41
2022/01/24 11:27:25;;;;;;;160.27;108.68;;;;;;;24.52;34.37;102736.69;5123304;28;20027;-43
2022/01/24 11:29:56;;;;;;;161.13;106.22;;;;;;;24.58;33.88;102748.31;5093323;28;20027;-41
2022/01/24 11:32:33;;;;;;;164.27;105.72;;;;;;;24.62;34.24;102741.50;5123038;28;20424;-41
2022/01/24 11:35:01;;;;;;;156.60;104.45;;;;;;;24.67;34.09;102741.66;5124056;28;20031;-45
2022/01/24 11:37:38;;;;;;;161.93;105.65;;;;;;;24.70;34.07;102737.44;5123968;28;20030;-42
2022/01/24 11:40:11;;;;;;;154.98;104.50;;;;;;;24.80;33.97;102737.81;5123921;28;20028;-40
2022/01/24 11:42:40;;;;;;;154.80;101.63;;;;;;;24.87;34.02;102734.56;5123976;28;20023;-40
2022/01/24 11:45:14;;;;;;;149.13;101.65;;;;;;;24.92;33.99;102733.00;5123677;28;20071;-42
2022/01/24 11:47:44;;;;;;;157.60;105.35;;;;;;;24.99;33.70;102728.88;5123854;28;20062;-43
2022/01/24 11:50:37;;;;;;;156.13;101.35;;;;;;;25.07;33.99;102726.53;5124847;27;20027;-41
2022/01/24 11:53:25;;;;;;;162.57;106.03;;;;;;;25.11;33.93;102718.81;5120537;27;20039;-41
2022/01/24 11:55:55;;;;;;;145.20;96.50;;;;;;;25.21;33.67;102722.66;5126939;27;20035;-41
2022/01/24 11:58:28;;;;;;;144.55;96.97;;;;;;;25.24;33.78;102725.41;5109434;27;20062;-42
2022/01/24 12:01:01;;;;;;;151.55;100.28;;;;;;;25.31;33.60;102716.91;5127932;27;20035;-41
2022/01/24 12:03:30;;;;;;;149.75;95.85;;;;;;;25.35;33.39;102723.16;5079032;27;20087;-41
2022/01/24 12:06:09;;;;;;;148.70;96.63;;;;;;;25.36;33.45;102729.28;5126985;27;20023;-41
2022/01/24 12:08:41;;;;;;;144.80;96.72;;;;;;;25.40;33.46;102729.44;5110743;27;20108;-41
2022/01/24 12:11:21;;;;;;;145.57;97.13;;;;;;;25.42;33.18;102724.28;5127070;27;20035;-41
2022/01/24 12:13:53;;;;;;;145.93;95.22;;;;;;;25.43;33.30;102715.56;5127287;27;20038;-41
2022/01/24 12:16:29;;;;;;;148.00;95.70;;;;;;;25.48;33.25;102714.88;5098909;27;20355;-41
2022/01/24 12:19:00;;;;;;;141.95;95.05;;;;;;;25.52;33.50;102715.88;5109144;27;20264;-43
2022/01/24 12:21:30;;;;;;;137.77;92.63;;;;;;;25.53;33.65;102722.03;5127249;27;20047;-46
2022/01/24 12:24:02;;;;;;;133.40;89.53;;;;;;;25.57;33.59;102716.94;5126824;27;20032;-41
2022/01/24 12:26:33;;;;;;;144.75;92.30;;;;;;;25.58;33.06;102710.84;5126739;27;20019;-43
2022/01/24 12:29:05;;;;;;;145.18;92.45;;;;;;;25.62;33.05;102715.38;5127451;27;20108;-41
2022/01/24 12:31:37;;;;;;;133.48;88.47;;;;;;;25.72;33.32;102718.28;5127033;27;20080;-41
2022/01/24 12:34:13;;;;;;;139.57;89.80;;;;;;;25.74;33.34;102719.25;5126891;27;20063;-45
2022/01/24 12:36:50;;;;;;;130.18;83.78;;;;;;;25.80;32.77;102711.56;5126526;27;20023;-41
2022/01/24 12:39:24;;;;;;;126.35;83.75;;;;;;;25.78;32.67;102714.13;5126654;27;20043;-42
2022/01/24 12:41:59;;;;;;;127.32;84.10;;;;;;;25.78;32.65;102708.00;5127309;27;20115;-41
2022/01/24 12:47:12;;;;;;;130.63;86.43;;;;;;;25.80;32.87;102703.69;5127240;27;20077;-41